createdAt,value
2018-10-06T00:00:35.041Z,99.90
2018-10-06T00:03:03.442Z,99.90
2018-10-06T00:05:31.863Z,99.90
2018-10-06T00:08:00.257Z,99.90
2018-10-06T00:10:28.698Z,99.90
2018-10-06T00:12:57.772Z,99.90
2018-10-06T00:15:26.187Z,99.90
2018-10-06T00:17:54.594Z,99.90
2018-10-06T00:20:23.322Z,99.90
2018-10-06T00:22:52.058Z,99.90
2018-10-06T00:25:20.478Z,99.90
2018-10-06T00:27:48.902Z,99.90
2018-10-06T00:30:17.280Z,99.90
2018-10-06T00:32:45.699Z,99.90
2018-10-06T00:35:14.102Z,99.90
2018-10-06T00:37:42.505Z,99.90
2018-10-06T00:40:10.933Z,99.90
2018-10-06T00:42:39.325Z,99.90
2018-10-06T00:45:07.789Z,99.90
2018-10-06T00:47:36.256Z,99.90
2018-10-06T00:50:04.768Z,99.90
2018-10-06T00:52:33.208Z,99.90
2018-10-06T00:55:01.596Z,99.90
2018-10-06T00:57:30.016Z,99.90
2018-10-06T00:59:58.425Z,99.90
2018-10-06T01:02:26.805Z,99.90
2018-10-06T01:04:55.192Z,99.90
2018-10-06T01:07:23.926Z,99.90
2018-10-06T01:09:52.310Z,99.90
2018-10-06T01:12:20.688Z,99.90
2018-10-06T01:14:49.121Z,99.90
2018-10-06T01:17:17.513Z,99.90
2018-10-06T01:19:45.925Z,99.90
2018-10-06T01:22:14.321Z,99.90
2018-10-06T01:24:42.713Z,99.90
2018-10-06T01:27:11.117Z,99.90
2018-10-06T01:29:39.515Z,99.90
2018-10-06T01:32:08.745Z,99.90
2018-10-06T01:34:37.653Z,99.90
2018-10-06T01:37:06.243Z,99.90
2018-10-06T01:39:34.635Z,99.90
2018-10-06T01:42:03.046Z,99.90
2018-10-06T01:44:31.428Z,99.90
2018-10-06T01:46:59.825Z,99.90
2018-10-06T01:49:28.228Z,99.90
2018-10-06T01:51:56.633Z,99.90
2018-10-06T01:54:25.076Z,99.90
2018-10-06T01:56:53.453Z,99.90
2018-10-06T01:59:21.836Z,99.90
2018-10-06T02:01:50.265Z,99.90
2018-10-06T02:04:22.876Z,99.90
2018-10-06T02:06:51.432Z,99.90
2018-10-06T02:09:19.861Z,99.90
2018-10-06T02:11:48.253Z,99.90
2018-10-06T02:14:16.624Z,99.90
2018-10-06T02:16:45.057Z,99.90
2018-10-06T02:19:14.117Z,99.90
2018-10-06T02:21:42.501Z,99.90
2018-10-06T02:24:10.900Z,99.90
2018-10-06T02:26:39.303Z,99.90
2018-10-06T02:29:07.689Z,99.90
2018-10-06T02:31:36.085Z,99.90
2018-10-06T02:34:04.518Z,99.90
2018-10-06T02:36:32.909Z,99.90
2018-10-06T02:39:01.304Z,99.90
2018-10-06T02:41:29.704Z,99.90
2018-10-06T02:43:58.097Z,99.90
2018-10-06T02:46:26.500Z,99.90
2018-10-06T02:48:54.910Z,99.90
2018-10-06T02:51:23.304Z,99.90
2018-10-06T02:53:52.244Z,99.90
2018-10-06T02:56:20.733Z,99.90
2018-10-06T02:58:49.125Z,99.90
2018-10-06T03:01:17.559Z,99.90
2018-10-06T03:03:45.948Z,99.90
2018-10-06T03:06:14.381Z,99.90
2018-10-06T03:08:42.829Z,99.90
2018-10-06T03:11:11.203Z,99.90
2018-10-06T03:13:39.605Z,99.90
2018-10-06T03:16:08.438Z,99.90
2018-10-06T03:18:36.855Z,99.90
2018-10-06T03:21:05.298Z,99.90
2018-10-06T03:23:33.688Z,99.90
2018-10-06T03:26:02.106Z,99.90
2018-10-06T03:28:30.493Z,99.90
2018-10-06T03:30:58.916Z,99.90
2018-10-06T03:33:27.312Z,99.90
2018-10-06T03:35:55.692Z,99.90
2018-10-06T03:38:24.088Z,99.90
2018-10-06T03:40:52.467Z,99.90
2018-10-06T03:43:20.872Z,99.90
2018-10-06T03:45:49.256Z,99.90
2018-10-06T03:48:17.650Z,99.90
2018-10-06T03:50:46.037Z,99.90
2018-10-06T03:53:14.440Z,99.90
2018-10-06T03:55:42.908Z,99.90
2018-10-06T03:58:11.304Z,99.90
2018-10-06T04:00:39.697Z,99.90
2018-10-06T04:03:08.144Z,99.90
2018-10-06T04:05:36.524Z,99.90
2018-10-06T04:08:05.124Z,99.90
2018-10-06T04:10:34.443Z,99.90
2018-10-06T04:13:02.834Z,99.90
2018-10-06T04:15:31.236Z,99.90
2018-10-06T04:17:59.889Z,99.90
2018-10-06T04:20:28.530Z,99.90
2018-10-06T04:22:58.841Z,99.90
2018-10-06T04:25:27.213Z,99.90
2018-10-06T04:27:55.604Z,99.90
2018-10-06T04:30:23.984Z,99.90
2018-10-06T04:32:52.374Z,99.90
2018-10-06T04:35:20.809Z,99.90
2018-10-06T04:37:49.213Z,99.90
2018-10-06T04:40:18.229Z,99.90
2018-10-06T04:42:46.612Z,99.90
2018-10-06T04:45:15.188Z,99.90
2018-10-06T04:47:43.568Z,99.90
2018-10-06T04:50:11.954Z,99.90
2018-10-06T04:52:40.352Z,99.90
2018-10-06T04:55:08.725Z,99.90
2018-10-06T04:57:37.134Z,99.90
2018-10-06T05:00:06.417Z,99.90
2018-10-06T05:02:34.789Z,99.90
2018-10-06T05:05:03.227Z,99.90
2018-10-06T05:07:31.605Z,99.90
2018-10-06T05:09:59.993Z,99.90
2018-10-06T05:12:28.393Z,99.90
2018-10-06T05:14:57.064Z,99.90
2018-10-06T05:17:25.444Z,99.90
2018-10-06T05:19:53.877Z,99.90
2018-10-06T05:22:22.658Z,99.90
2018-10-06T05:24:51.839Z,99.90
2018-10-06T05:27:20.242Z,99.90
2018-10-06T05:29:48.659Z,99.90
2018-10-06T05:32:17.073Z,99.90
2018-10-06T05:34:45.647Z,99.90
2018-10-06T05:37:14.813Z,99.90
2018-10-06T05:39:43.220Z,99.90
2018-10-06T05:42:11.629Z,99.90
2018-10-06T05:44:40.022Z,99.90
2018-10-06T05:47:08.481Z,99.90
2018-10-06T05:49:36.980Z,99.90
2018-10-06T05:52:05.638Z,99.90
2018-10-06T05:54:34.060Z,99.90
2018-10-06T05:57:02.477Z,99.90
2018-10-06T05:59:30.873Z,99.90
2018-10-06T06:01:59.261Z,99.90
2018-10-06T06:04:31.464Z,99.90
2018-10-06T06:06:59.861Z,99.90
2018-10-06T06:09:28.869Z,99.90
2018-10-06T06:11:57.246Z,99.90
2018-10-06T06:14:25.628Z,99.90
2018-10-06T06:16:54.025Z,99.90
2018-10-06T06:19:22.445Z,99.90
2018-10-06T06:21:50.857Z,99.90
2018-10-06T06:24:19.277Z,99.90
2018-10-06T06:26:48.392Z,99.90
2018-10-06T06:29:16.793Z,99.90
2018-10-06T06:31:45.365Z,99.90
2018-10-06T06:34:13.816Z,99.90
2018-10-06T06:36:42.216Z,99.90
2018-10-06T06:39:10.740Z,99.90
2018-10-06T06:41:39.396Z,99.90
2018-10-06T06:44:08.353Z,99.90
2018-10-06T06:46:36.996Z,99.90
2018-10-06T06:49:06.060Z,99.90
2018-10-06T06:51:35.113Z,99.90
2018-10-06T06:54:03.506Z,99.90
2018-10-06T06:56:32.005Z,99.90
2018-10-06T06:59:00.665Z,99.90
2018-10-06T07:01:29.049Z,99.90
2018-10-06T07:03:57.437Z,99.90
2018-10-06T07:06:25.869Z,99.90
2018-10-06T07:08:54.274Z,99.90
2018-10-06T07:11:23.305Z,99.90
2018-10-06T07:13:51.725Z,99.90
2018-10-06T07:16:20.137Z,99.90
2018-10-06T07:18:48.544Z,99.90
2018-10-06T07:21:16.954Z,99.90
2018-10-06T07:23:45.381Z,99.90
2018-10-06T07:26:13.780Z,99.90
2018-10-06T07:28:42.177Z,99.90
2018-10-06T07:31:10.688Z,99.90
2018-10-06T07:33:39.120Z,99.90
2018-10-06T07:36:07.545Z,99.90
2018-10-06T07:38:36.105Z,99.90
2018-10-06T07:41:04.549Z,99.90
2018-10-06T07:43:32.949Z,99.90
2018-10-06T07:46:02.648Z,99.90
2018-10-06T07:48:31.077Z,99.90
2018-10-06T07:50:59.612Z,99.90
2018-10-06T07:53:28.021Z,99.90
2018-10-06T07:55:56.416Z,99.90
2018-10-06T07:58:24.853Z,99.90
2018-10-06T08:00:53.267Z,99.90
2018-10-06T08:03:21.693Z,99.90
2018-10-06T08:05:50.688Z,99.90
2018-10-06T08:08:19.372Z,99.90
2018-10-06T08:10:47.801Z,99.90
2018-10-06T08:13:16.201Z,99.90
2018-10-06T08:15:44.640Z,99.90
2018-10-06T08:18:13.021Z,99.90
2018-10-06T08:20:41.423Z,99.90
2018-10-06T08:23:09.924Z,99.90
2018-10-06T08:25:38.365Z,99.90
2018-10-06T08:28:06.759Z,99.90
2018-10-06T08:30:35.190Z,99.90
2018-10-06T08:33:03.594Z,99.90
2018-10-06T08:35:32.054Z,99.90
2018-10-06T08:38:00.896Z,99.90
2018-10-06T08:40:29.736Z,99.90
2018-10-06T08:42:58.313Z,99.90
2018-10-06T08:45:26.997Z,99.90
2018-10-06T08:47:55.432Z,99.90
2018-10-06T08:50:23.893Z,99.90
2018-10-06T08:52:52.491Z,99.90
2018-10-06T08:55:20.905Z,99.90
2018-10-06T08:57:49.329Z,99.90
2018-10-06T09:00:17.822Z,99.90
2018-10-06T09:02:46.356Z,99.90
2018-10-06T09:05:14.762Z,99.90
2018-10-06T09:07:44.052Z,99.90
2018-10-06T09:10:13.032Z,99.90
2018-10-06T09:12:41.714Z,99.90
2018-10-06T09:15:12.267Z,99.90
2018-10-06T09:17:40.818Z,99.90
2018-10-06T09:20:09.217Z,99.90
2018-10-06T09:22:37.659Z,99.90
2018-10-06T09:25:06.121Z,99.90
2018-10-06T09:27:34.537Z,99.90
2018-10-06T09:30:02.991Z,99.90
2018-10-06T09:32:32.396Z,99.90
2018-10-06T09:35:01.656Z,99.90
2018-10-06T09:37:30.049Z,99.90
2018-10-06T09:39:58.680Z,99.90
2018-10-06T09:42:27.183Z,99.90
2018-10-06T09:44:55.581Z,99.90
2018-10-06T09:47:23.956Z,99.90
2018-10-06T09:49:52.361Z,99.90
2018-10-06T09:52:20.965Z,99.90
2018-10-06T09:54:49.433Z,99.90
2018-10-06T09:57:17.866Z,99.90
2018-10-06T09:59:46.517Z,99.90
2018-10-06T10:02:20.415Z,99.90
2018-10-06T10:04:48.789Z,99.90
2018-10-06T10:07:17.193Z,99.90
2018-10-06T10:09:45.680Z,99.90
2018-10-06T10:12:14.923Z,99.90
2018-10-06T10:14:43.305Z,99.90
2018-10-06T10:17:11.767Z,99.90
2018-10-06T10:19:40.140Z,99.90
2018-10-06T10:22:08.660Z,99.90
2018-10-06T10:24:36.932Z,99.90
2018-10-06T10:27:05.404Z,99.90
2018-10-06T10:29:33.784Z,99.90
2018-10-06T10:32:02.201Z,99.90
2018-10-06T10:34:30.652Z,99.90
2018-10-06T10:36:59.009Z,99.90
2018-10-06T10:39:27.648Z,99.90
2018-10-06T10:41:55.928Z,99.90
2018-10-06T10:44:24.436Z,99.90
2018-10-06T10:46:52.760Z,99.90
2018-10-06T10:49:21.209Z,99.90
2018-10-06T10:51:49.640Z,99.90
2018-10-06T10:54:18.073Z,99.90
2018-10-06T10:56:46.465Z,99.90
2018-10-06T10:59:14.973Z,99.90
2018-10-06T11:01:43.365Z,99.90
2018-10-06T11:04:11.798Z,99.90
2018-10-06T11:06:40.223Z,99.90
2018-10-06T11:09:09.081Z,99.90
2018-10-06T11:11:37.788Z,99.90
2018-10-06T11:14:06.246Z,99.40
2018-10-06T11:16:34.657Z,98.90
2018-10-06T11:19:03.331Z,98.90
2018-10-06T11:21:31.769Z,98.50
2018-10-06T11:24:00.180Z,98.90
2018-10-06T11:26:28.848Z,98.40
2018-10-06T11:28:57.269Z,98.80
2018-10-06T11:31:25.677Z,97.80
2018-10-06T11:33:54.099Z,97.40
2018-10-06T11:36:22.489Z,97.40
2018-10-06T11:38:50.897Z,96.60
2018-10-06T11:41:19.280Z,96.40
2018-10-06T11:43:48.458Z,96.60
2018-10-06T11:46:17.225Z,97.20
2018-10-06T11:48:45.621Z,98.00
2018-10-06T11:51:14.141Z,96.90
2018-10-06T11:53:42.537Z,96.90
2018-10-06T11:56:10.956Z,95.30
2018-10-06T11:58:39.342Z,95.70
2018-10-06T12:01:07.880Z,94.40
2018-10-06T12:03:36.651Z,94.80
2018-10-06T12:06:05.133Z,94.50
2018-10-06T12:08:33.567Z,94.50
2018-10-06T12:11:02.028Z,94.80
2018-10-06T12:13:30.426Z,93.60
2018-10-06T12:15:59.090Z,92.30
2018-10-06T12:18:27.493Z,92.20
2018-10-06T12:20:55.929Z,91.40
2018-10-06T12:23:24.425Z,91.30
2018-10-06T12:25:52.864Z,91.60
2018-10-06T12:28:21.214Z,91.80
2018-10-06T12:30:49.625Z,91.90
2018-10-06T12:33:18.033Z,92.60
2018-10-06T12:35:46.474Z,92.50
2018-10-06T12:38:15.772Z,93.10
2018-10-06T12:40:44.233Z,93.50
2018-10-06T12:43:12.665Z,93.30
2018-10-06T12:45:41.077Z,93.80
2018-10-06T12:48:09.465Z,92.90
2018-10-06T12:50:37.880Z,92.40
2018-10-06T12:53:06.325Z,93.00
2018-10-06T12:55:34.712Z,92.60
2018-10-06T12:58:03.196Z,92.20
2018-10-06T13:00:31.718Z,92.00
2018-10-06T13:03:00.126Z,91.40
2018-10-06T13:05:29.205Z,92.10
2018-10-06T13:07:57.632Z,92.40
2018-10-06T13:10:26.031Z,92.20
2018-10-06T13:12:54.452Z,91.70
2018-10-06T13:15:23.497Z,91.80
2018-10-06T13:17:51.897Z,92.40
2018-10-06T13:20:20.288Z,91.80
2018-10-06T13:22:48.709Z,92.50
2018-10-06T13:25:17.084Z,92.40
2018-10-06T13:27:45.528Z,92.70
2018-10-06T13:30:13.925Z,93.10
2018-10-06T13:32:42.359Z,93.30
2018-10-06T13:35:10.769Z,93.00
2018-10-06T13:37:39.453Z,93.00
2018-10-06T13:40:07.928Z,92.80
2018-10-06T13:42:37.010Z,94.00
2018-10-06T13:45:05.492Z,94.20
2018-10-06T13:47:33.909Z,93.90
2018-10-06T13:50:02.329Z,94.50
2018-10-06T13:52:30.832Z,94.20
2018-10-06T13:54:59.235Z,94.40
2018-10-06T13:57:27.717Z,94.70
2018-10-06T13:59:56.160Z,94.70
2018-10-06T14:02:24.645Z,95.30
2018-10-06T14:04:53.141Z,94.40
2018-10-06T14:07:21.624Z,95.40
2018-10-06T14:09:50.016Z,95.50
2018-10-06T14:12:18.469Z,96.30
2018-10-06T14:14:46.884Z,95.60
2018-10-06T14:17:15.536Z,96.00
2018-10-06T14:19:43.957Z,95.80
2018-10-06T14:22:12.409Z,95.80
2018-10-06T14:24:40.816Z,95.50
2018-10-06T14:27:09.242Z,95.90
2018-10-06T14:29:37.649Z,95.90
2018-10-06T14:32:06.216Z,95.80
2018-10-06T14:34:34.635Z,96.00
2018-10-06T14:37:03.043Z,96.10
2018-10-06T14:39:31.488Z,96.10
2018-10-06T14:42:00.044Z,96.30
2018-10-06T14:44:28.585Z,96.40
2018-10-06T14:46:57.044Z,96.20
2018-10-06T14:49:25.444Z,96.40
2018-10-06T14:51:54.417Z,96.30
2018-10-06T14:54:22.845Z,96.80
2018-10-06T14:56:51.311Z,96.60
2018-10-06T14:59:20.320Z,96.70
2018-10-06T15:01:48.752Z,96.10
2018-10-06T15:04:17.184Z,96.50
2018-10-06T15:06:45.597Z,96.70
2018-10-06T15:09:13.989Z,97.20
2018-10-06T15:11:42.385Z,96.90
2018-10-06T15:14:10.805Z,97.10
2018-10-06T15:16:39.209Z,96.90
2018-10-06T15:19:08.541Z,96.50
2018-10-06T15:21:37.054Z,96.70
2018-10-06T15:24:05.440Z,97.10
2018-10-06T15:26:33.864Z,96.40
2018-10-06T15:29:02.404Z,96.10
2018-10-06T15:31:30.833Z,95.20
2018-10-06T15:33:59.230Z,94.90
2018-10-06T15:36:27.972Z,95.10
2018-10-06T15:38:56.336Z,94.80
2018-10-06T15:41:24.761Z,94.60
2018-10-06T15:43:53.168Z,94.50
2018-10-06T15:46:22.245Z,95.20
2018-10-06T15:48:50.744Z,95.50
2018-10-06T15:51:19.176Z,95.40
2018-10-06T15:53:47.630Z,95.60
2018-10-06T15:56:16.115Z,95.90
2018-10-06T15:58:44.625Z,96.20
2018-10-06T16:01:13.081Z,96.70
2018-10-06T16:03:41.499Z,96.90
2018-10-06T16:06:10.042Z,97.70
2018-10-06T16:08:38.553Z,97.70
2018-10-06T16:11:07.039Z,98.40
2018-10-06T16:13:38.949Z,99.00
2018-10-06T16:16:07.381Z,99.20
2018-10-06T16:18:40.647Z,99.60
2018-10-06T16:21:10.182Z,99.50
2018-10-06T16:23:39.809Z,99.80
2018-10-06T16:26:14.260Z,99.90
2018-10-06T16:28:42.832Z,99.90
2018-10-06T16:31:11.332Z,99.90
2018-10-06T16:33:39.818Z,99.90
2018-10-06T16:36:08.352Z,99.90
2018-10-06T16:38:37.504Z,99.90
2018-10-06T16:41:05.991Z,99.90
2018-10-06T16:43:34.628Z,99.90
2018-10-06T16:46:03.150Z,99.90
2018-10-06T16:48:31.574Z,99.90
2018-10-06T16:51:01.101Z,99.90
2018-10-06T16:53:29.549Z,99.90
2018-10-06T16:55:58.940Z,99.90
2018-10-06T16:58:27.369Z,99.90
2018-10-06T17:01:10.397Z,99.90
2018-10-06T17:03:44.122Z,99.90
2018-10-06T17:06:12.659Z,99.90
2018-10-06T17:08:42.060Z,99.90
2018-10-06T17:11:10.488Z,99.90
2018-10-06T17:13:38.906Z,99.90
2018-10-06T17:16:07.917Z,99.90
2018-10-06T17:18:36.368Z,99.90
2018-10-06T17:21:04.720Z,99.90
2018-10-06T17:23:33.141Z,99.90
2018-10-06T17:26:01.593Z,99.90
2018-10-06T17:28:29.990Z,99.90
2018-10-06T17:30:58.458Z,99.90
2018-10-06T17:33:26.829Z,99.90
2018-10-06T17:35:55.361Z,99.90
2018-10-06T17:38:23.838Z,99.90
2018-10-06T17:40:52.276Z,99.90
2018-10-06T17:43:20.800Z,99.90
2018-10-06T17:45:49.249Z,99.90
2018-10-06T17:48:17.901Z,99.90
2018-10-06T17:50:47.339Z,99.90
2018-10-06T17:53:17.373Z,99.90
2018-10-06T17:55:45.812Z,99.90
2018-10-06T17:58:14.243Z,99.90
2018-10-06T18:00:42.649Z,99.90
2018-10-06T18:03:11.057Z,99.90
2018-10-06T18:05:39.529Z,99.90
2018-10-06T18:08:07.938Z,99.90
2018-10-06T18:10:36.410Z,99.90
2018-10-06T18:13:04.855Z,99.90
2018-10-06T18:15:34.105Z,99.90
2018-10-06T18:18:02.508Z,99.90
2018-10-06T18:20:30.992Z,99.90
2018-10-06T18:22:59.357Z,99.90
2018-10-06T18:25:28.622Z,99.90
2018-10-06T18:27:57.020Z,99.90
2018-10-06T18:30:25.429Z,99.90
2018-10-06T18:32:53.893Z,99.90
2018-10-06T18:35:22.309Z,99.90
2018-10-06T18:37:50.789Z,99.90
2018-10-06T18:40:19.247Z,99.90
2018-10-06T18:42:47.645Z,99.90
2018-10-06T18:45:16.080Z,99.90
2018-10-06T18:47:44.487Z,99.90
2018-10-06T18:50:12.941Z,99.90
2018-10-06T18:52:41.365Z,99.90
2018-10-06T18:55:09.792Z,99.90
2018-10-06T18:57:38.243Z,99.90
2018-10-06T19:00:07.456Z,99.90
2018-10-06T19:02:35.950Z,99.90
2018-10-06T19:05:04.481Z,99.90
2018-10-06T19:07:33.554Z,99.90
2018-10-06T19:10:01.978Z,99.90
2018-10-06T19:12:30.358Z,99.90
2018-10-06T19:14:59.248Z,99.90
2018-10-06T19:17:27.701Z,99.90
2018-10-06T19:19:56.248Z,99.90
2018-10-06T19:22:24.761Z,99.90
2018-10-06T19:24:53.161Z,99.90
2018-10-06T19:27:21.589Z,99.90
2018-10-06T19:29:49.977Z,99.90
2018-10-06T19:32:18.848Z,99.90
2018-10-06T19:34:47.278Z,99.90
2018-10-06T19:37:15.677Z,99.90
2018-10-06T19:39:44.101Z,99.90
2018-10-06T19:42:12.509Z,99.90
2018-10-06T19:44:40.938Z,99.90
2018-10-06T19:47:09.382Z,99.90
2018-10-06T19:49:37.800Z,99.90
2018-10-06T19:52:06.435Z,99.90
2018-10-06T19:54:34.860Z,99.90
2018-10-06T19:57:03.285Z,99.90
2018-10-06T19:59:31.716Z,99.90
2018-10-06T20:02:00.169Z,99.90
2018-10-06T20:04:28.598Z,99.90
2018-10-06T20:06:57.004Z,99.90
2018-10-06T20:09:25.441Z,99.90
2018-10-06T20:11:53.902Z,99.90
2018-10-06T20:14:23.416Z,99.90
2018-10-06T20:16:53.025Z,99.90
2018-10-06T20:19:21.462Z,99.90
2018-10-06T20:21:50.521Z,99.90
2018-10-06T20:24:18.994Z,99.90
2018-10-06T20:26:47.392Z,99.90
2018-10-06T20:29:15.780Z,99.90
2018-10-06T20:31:44.945Z,99.90
2018-10-06T20:34:13.399Z,99.90
2018-10-06T20:36:41.829Z,99.90
2018-10-06T20:39:10.844Z,99.90
2018-10-06T20:41:39.330Z,99.90
2018-10-06T20:44:07.784Z,99.90
2018-10-06T20:46:36.253Z,99.90
2018-10-06T20:49:04.694Z,99.90
2018-10-06T20:51:33.109Z,99.90
2018-10-06T20:54:01.518Z,99.90
2018-10-06T20:56:30.936Z,99.90
2018-10-06T20:58:59.636Z,99.90
2018-10-06T21:01:28.065Z,99.90
2018-10-06T21:03:56.453Z,99.90
2018-10-06T21:06:37.455Z,99.90
2018-10-06T21:09:09.697Z,99.90
2018-10-06T21:11:38.141Z,99.90
2018-10-06T21:14:06.550Z,99.90
2018-10-06T21:16:34.964Z,99.90
2018-10-06T21:19:03.374Z,99.90
2018-10-06T21:21:31.823Z,99.90
2018-10-06T21:24:00.233Z,99.90
2018-10-06T21:26:28.659Z,99.90
2018-10-06T21:28:57.116Z,99.90
2018-10-06T21:31:25.688Z,99.90
2018-10-06T21:33:54.316Z,99.90
2018-10-06T21:36:22.744Z,99.90
2018-10-06T21:38:51.187Z,99.90
2018-10-06T21:41:19.657Z,99.90
2018-10-06T21:43:48.053Z,99.90
2018-10-06T21:46:16.445Z,99.90
2018-10-06T21:48:44.881Z,99.90
2018-10-06T21:51:13.609Z,99.90
2018-10-06T21:53:42.142Z,99.90
2018-10-06T21:56:10.649Z,99.90
2018-10-06T21:58:39.236Z,99.90
2018-10-06T22:01:10.963Z,99.90
2018-10-06T22:03:40.066Z,99.90
2018-10-06T22:06:09.168Z,99.90
2018-10-06T22:08:37.825Z,99.90
2018-10-06T22:11:06.291Z,99.90
2018-10-06T22:13:34.677Z,99.90
2018-10-06T22:16:03.151Z,99.90
2018-10-06T22:18:31.541Z,99.90
2018-10-06T22:21:00.065Z,99.90
2018-10-06T22:23:28.475Z,99.90
2018-10-06T22:25:56.880Z,99.90
2018-10-06T22:28:25.301Z,99.90
2018-10-06T22:30:53.716Z,99.90
2018-10-06T22:33:22.272Z,99.90
2018-10-06T22:35:50.685Z,99.90
2018-10-06T22:38:19.529Z,99.90
2018-10-06T22:40:48.204Z,99.90
2018-10-06T22:43:16.601Z,99.90
2018-10-06T22:45:45.025Z,99.90
2018-10-06T22:48:13.445Z,99.90
2018-10-06T22:50:41.865Z,99.90
2018-10-06T22:53:10.316Z,99.90
2018-10-06T22:55:38.712Z,99.90
2018-10-06T22:58:07.214Z,99.90
2018-10-06T23:00:35.641Z,99.90
2018-10-06T23:03:04.053Z,99.90
2018-10-06T23:05:32.448Z,99.90
2018-10-06T23:08:01.648Z,99.90
2018-10-06T23:10:30.120Z,99.90
2018-10-06T23:12:58.521Z,99.90
2018-10-06T23:15:27.412Z,99.90
2018-10-06T23:17:55.821Z,99.90
2018-10-06T23:20:24.217Z,99.90
2018-10-06T23:22:52.611Z,99.90
2018-10-06T23:25:21.001Z,99.90
2018-10-06T23:27:49.409Z,99.90
2018-10-06T23:30:17.955Z,99.90
2018-10-06T23:32:46.373Z,99.90
2018-10-06T23:35:15.716Z,99.90
2018-10-06T23:37:44.148Z,99.90
2018-10-06T23:40:12.575Z,99.90
2018-10-06T23:42:41.060Z,99.90
2018-10-06T23:45:09.479Z,99.90
2018-10-06T23:47:37.893Z,99.90
2018-10-06T23:50:06.410Z,99.90
2018-10-06T23:52:34.921Z,99.90
2018-10-06T23:55:04.104Z,99.90
2018-10-06T23:57:40.538Z,99.90
